sensor_id;sensor_type;location;lat;lon;timestamp;temperature;humidity
23063;DHT22;11699;43.704;10.430;2023-08-24T00:00:44;26.30;99.90
23063;DHT22;11699;43.704;10.430;2023-08-24T00:03:11;26.30;99.90
23063;DHT22;11699;43.704;10.430;2023-08-24T00:05:38;26.20;99.90
23063;DHT22;11699;43.704;10.430;2023-08-24T00:08:06;26.00;99.90
23063;DHT22;11699;43.704;10.430;2023-08-24T00:10:34;26.10;99.90
23063;DHT22;11699;43.704;10.430;2023-08-24T00:13:01;26.20;99.90
23063;DHT22;11699;43.704;10.430;2023-08-24T00:15:29;26.20;99.90
23063;DHT22;11699;43.704;10.430;2023-08-24T00:17:58;26.20;99.90
23063;DHT22;11699;43.704;10.430;2023-08-24T00:20:26;26.20;99.90
23063;DHT22;11699;43.704;10.430;2023-08-24T00:22:53;26.00;99.90
23063;DHT22;11699;43.704;10.430;2023-08-24T00:25:20;26.00;99.90
23063;DHT22;11699;43.704;10.430;2023-08-24T00:27:47;26.00;99.90
23063;DHT22;11699;43.704;10.430;2023-08-24T00:30:14;26.00;99.90
23063;DHT22;11699;43.704;10.430;2023-08-24T00:32:41;26.10;99.90
23063;DHT22;11699;43.704;10.430;2023-08-24T00:35:10;26.10;99.90
23063;DHT22;11699;43.704;10.430;2023-08-24T00:37:38;26.10;99.90
23063;DHT22;11699;43.704;10.430;2023-08-24T00:40:07;26.20;99.90
23063;DHT22;11699;43.704;10.430;2023-08-24T00:42:37;26.10;99.90
23063;DHT22;11699;43.704;10.430;2023-08-24T00:45:06;26.20;99.90
23063;DHT22;11699;43.704;10.430;2023-08-24T00:47:35;26.20;99.90
23063;DHT22;11699;43.704;10.430;2023-08-24T00:50:03;26.30;99.90
23063;DHT22;11699;43.704;10.430;2023-08-24T00:52:32;26.30;99.90
23063;DHT22;11699;43.704;10.430;2023-08-24T00:55:01;26.30;99.90
23063;DHT22;11699;43.704;10.430;2023-08-24T00:57:28;26.30;99.90
23063;DHT22;11699;43.704;10.430;2023-08-24T00:59:56;26.20;99.90
23063;DHT22;11699;43.704;10.430;2023-08-24T01:02:24;26.20;99.90
23063;DHT22;11699;43.704;10.430;2023-08-24T01:04:51;26.20;99.90
23063;DHT22;11699;43.704;10.430;2023-08-24T01:07:18;26.20;99.90
23063;DHT22;11699;43.704;10.430;2023-08-24T01:09:48;26.30;99.90
23063;DHT22;11699;43.704;10.430;2023-08-24T01:12:22;26.30;99.90
23063;DHT22;11699;43.704;10.430;2023-08-24T01:14:58;26.30;99.90
23063;DHT22;11699;43.704;10.430;2023-08-24T01:17:30;26.30;99.90
23063;DHT22;11699;43.704;10.430;2023-08-24T01:19:58;26.10;99.90
23063;DHT22;11699;43.704;10.430;2023-08-24T01:22:33;26.10;99.90
23063;DHT22;11699;43.704;10.430;2023-08-24T01:25:06;26.10;99.90
23063;DHT22;11699;43.704;10.430;2023-08-24T01:27:40;26.00;99.90
23063;DHT22;11699;43.704;10.430;2023-08-24T01:30:08;25.90;99.90
23063;DHT22;11699;43.704;10.430;2023-08-24T01:32:36;25.90;99.90
23063;DHT22;11699;43.704;10.430;2023-08-24T01:35:06;25.80;99.90
23063;DHT22;11699;43.704;10.430;2023-08-24T01:37:34;25.70;99.90
23063;DHT22;11699;43.704;10.430;2023-08-24T01:40:05;25.70;99.90
23063;DHT22;11699;43.704;10.430;2023-08-24T01:42:41;25.70;99.90
23063;DHT22;11699;43.704;10.430;2023-08-24T01:45:10;25.50;99.90
23063;DHT22;11699;43.704;10.430;2023-08-24T01:47:40;25.50;99.90
23063;DHT22;11699;43.704;10.430;2023-08-24T01:50:09;25.50;99.90
23063;DHT22;11699;43.704;10.430;2023-08-24T01:52:36;25.50;99.90
23063;DHT22;11699;43.704;10.430;2023-08-24T01:55:05;25.30;99.90
23063;DHT22;11699;43.704;10.430;2023-08-24T01:57:32;25.20;99.90
23063;DHT22;11699;43.704;10.430;2023-08-24T02:00:00;25.10;99.90
23063;DHT22;11699;43.704;10.430;2023-08-24T02:02:28;24.90;99.90
23063;DHT22;11699;43.704;10.430;2023-08-24T02:04:55;24.80;99.90
23063;DHT22;11699;43.704;10.430;2023-08-24T02:07:22;24.60;99.90
23063;DHT22;11699;43.704;10.430;2023-08-24T02:09:49;24.60;99.90
23063;DHT22;11699;43.704;10.430;2023-08-24T02:12:16;24.60;99.90
23063;DHT22;11699;43.704;10.430;2023-08-24T02:14:43;24.70;99.90
23063;DHT22;11699;43.704;10.430;2023-08-24T02:17:11;24.80;99.90
23063;DHT22;11699;43.704;10.430;2023-08-24T02:19:39;24.80;99.90
23063;DHT22;11699;43.704;10.430;2023-08-24T02:22:07;24.90;99.90
23063;DHT22;11699;43.704;10.430;2023-08-24T02:24:34;24.90;99.90
23063;DHT22;11699;43.704;10.430;2023-08-24T02:27:02;24.90;99.90
23063;DHT22;11699;43.704;10.430;2023-08-24T02:29:29;24.90;99.90
23063;DHT22;11699;43.704;10.430;2023-08-24T02:31:56;24.90;99.90
23063;DHT22;11699;43.704;10.430;2023-08-24T02:34:25;25.00;99.90
23063;DHT22;11699;43.704;10.430;2023-08-24T02:36:52;24.90;99.90
23063;DHT22;11699;43.704;10.430;2023-08-24T02:39:19;25.00;99.90
23063;DHT22;11699;43.704;10.430;2023-08-24T02:41:46;25.10;99.90
23063;DHT22;11699;43.704;10.430;2023-08-24T02:44:13;25.00;99.90
23063;DHT22;11699;43.704;10.430;2023-08-24T02:46:43;24.90;99.90
23063;DHT22;11699;43.704;10.430;2023-08-24T02:49:10;25.00;99.90
23063;DHT22;11699;43.704;10.430;2023-08-24T02:51:39;24.90;99.90
23063;DHT22;11699;43.704;10.430;2023-08-24T02:54:06;24.80;99.90
23063;DHT22;11699;43.704;10.430;2023-08-24T02:56:33;24.70;99.90
23063;DHT22;11699;43.704;10.430;2023-08-24T02:59:00;24.80;99.90
23063;DHT22;11699;43.704;10.430;2023-08-24T03:01:27;24.80;99.90
23063;DHT22;11699;43.704;10.430;2023-08-24T03:03:55;24.90;99.90
23063;DHT22;11699;43.704;10.430;2023-08-24T03:06:22;24.80;99.90
23063;DHT22;11699;43.704;10.430;2023-08-24T03:08:51;24.80;99.90
23063;DHT22;11699;43.704;10.430;2023-08-24T03:11:18;24.60;99.90
23063;DHT22;11699;43.704;10.430;2023-08-24T03:13:45;24.50;99.90
23063;DHT22;11699;43.704;10.430;2023-08-24T03:16:12;24.40;99.90
23063;DHT22;11699;43.704;10.430;2023-08-24T03:18:40;24.30;99.90
23063;DHT22;11699;43.704;10.430;2023-08-24T03:21:07;24.20;99.90
23063;DHT22;11699;43.704;10.430;2023-08-24T03:23:34;24.00;99.90
23063;DHT22;11699;43.704;10.430;2023-08-24T03:26:03;24.00;99.90
23063;DHT22;11699;43.704;10.430;2023-08-24T03:28:30;24.10;99.90
23063;DHT22;11699;43.704;10.430;2023-08-24T03:30:57;24.20;99.90
23063;DHT22;11699;43.704;10.430;2023-08-24T03:33:24;24.20;99.90
23063;DHT22;11699;43.704;10.430;2023-08-24T03:35:53;24.30;99.90
23063;DHT22;11699;43.704;10.430;2023-08-24T03:38:21;24.40;99.90
23063;DHT22;11699;43.704;10.430;2023-08-24T03:40:48;24.40;99.90
23063;DHT22;11699;43.704;10.430;2023-08-24T03:43:16;24.30;99.90
23063;DHT22;11699;43.704;10.430;2023-08-24T03:45:44;24.30;99.90
23063;DHT22;11699;43.704;10.430;2023-08-24T03:48:11;24.30;99.90
23063;DHT22;11699;43.704;10.430;2023-08-24T03:50:38;24.20;99.90
23063;DHT22;11699;43.704;10.430;2023-08-24T03:53:06;24.00;99.90
23063;DHT22;11699;43.704;10.430;2023-08-24T03:55:33;23.90;99.90
23063;DHT22;11699;43.704;10.430;2023-08-24T03:58:00;24.00;99.90
23063;DHT22;11699;43.704;10.430;2023-08-24T04:00:29;24.10;99.90
23063;DHT22;11699;43.704;10.430;2023-08-24T04:02:57;24.10;99.90
23063;DHT22;11699;43.704;10.430;2023-08-24T04:05:24;24.10;99.90
23063;DHT22;11699;43.704;10.430;2023-08-24T04:07:51;24.00;99.90
23063;DHT22;11699;43.704;10.430;2023-08-24T04:10:18;24.00;99.90
23063;DHT22;11699;43.704;10.430;2023-08-24T04:12:45;24.00;99.90
23063;DHT22;11699;43.704;10.430;2023-08-24T04:15:12;23.80;99.90
23063;DHT22;11699;43.704;10.430;2023-08-24T04:17:41;24.00;99.90
23063;DHT22;11699;43.704;10.430;2023-08-24T04:20:09;23.90;99.90
23063;DHT22;11699;43.704;10.430;2023-08-24T04:22:37;23.80;99.90
23063;DHT22;11699;43.704;10.430;2023-08-24T04:25:05;23.80;99.90
23063;DHT22;11699;43.704;10.430;2023-08-24T04:27:32;23.80;99.90
23063;DHT22;11699;43.704;10.430;2023-08-24T04:30:00;23.80;99.90
23063;DHT22;11699;43.704;10.430;2023-08-24T04:32:29;23.70;99.90
23063;DHT22;11699;43.704;10.430;2023-08-24T04:34:57;23.60;99.90
23063;DHT22;11699;43.704;10.430;2023-08-24T04:37:25;23.50;99.90
23063;DHT22;11699;43.704;10.430;2023-08-24T04:39:52;23.60;99.90
23063;DHT22;11699;43.704;10.430;2023-08-24T04:42:19;23.70;99.90
23063;DHT22;11699;43.704;10.430;2023-08-24T04:44:46;23.60;99.90
23063;DHT22;11699;43.704;10.430;2023-08-24T04:47:13;23.50;99.90
23063;DHT22;11699;43.704;10.430;2023-08-24T04:49:40;23.60;99.90
23063;DHT22;11699;43.704;10.430;2023-08-24T04:52:09;23.80;99.90
23063;DHT22;11699;43.704;10.430;2023-08-24T04:54:36;23.90;99.90
23063;DHT22;11699;43.704;10.430;2023-08-24T04:57:03;23.90;99.90
23063;DHT22;11699;43.704;10.430;2023-08-24T04:59:31;23.90;99.90
23063;DHT22;11699;43.704;10.430;2023-08-24T05:01:58;23.90;99.90
23063;DHT22;11699;43.704;10.430;2023-08-24T05:04:25;23.90;99.90
23063;DHT22;11699;43.704;10.430;2023-08-24T05:06:52;23.90;99.90
23063;DHT22;11699;43.704;10.430;2023-08-24T05:09:21;23.80;99.90
23063;DHT22;11699;43.704;10.430;2023-08-24T05:11:49;23.60;99.90
23063;DHT22;11699;43.704;10.430;2023-08-24T05:14:16;23.60;99.90
23063;DHT22;11699;43.704;10.430;2023-08-24T05:16:43;23.60;99.90
23063;DHT22;11699;43.704;10.430;2023-08-24T05:19:11;23.60;99.90
23063;DHT22;11699;43.704;10.430;2023-08-24T05:21:38;23.70;99.90
23063;DHT22;11699;43.704;10.430;2023-08-24T05:24:05;23.80;99.90
23063;DHT22;11699;43.704;10.430;2023-08-24T05:26:34;23.80;99.90
23063;DHT22;11699;43.704;10.430;2023-08-24T05:29:01;23.90;99.90
23063;DHT22;11699;43.704;10.430;2023-08-24T05:31:28;24.10;99.90
23063;DHT22;11699;43.704;10.430;2023-08-24T05:33:55;24.20;99.90
23063;DHT22;11699;43.704;10.430;2023-08-24T05:36:22;24.30;99.90
23063;DHT22;11699;43.704;10.430;2023-08-24T05:38:49;24.50;99.90
23063;DHT22;11699;43.704;10.430;2023-08-24T05:41:20;24.50;99.90
23063;DHT22;11699;43.704;10.430;2023-08-24T05:43:49;24.50;99.90
23063;DHT22;11699;43.704;10.430;2023-08-24T05:46:18;24.50;99.90
23063;DHT22;11699;43.704;10.430;2023-08-24T05:48:45;24.50;99.90
23063;DHT22;11699;43.704;10.430;2023-08-24T05:51:13;24.50;99.90
23063;DHT22;11699;43.704;10.430;2023-08-24T05:53:40;24.50;99.90
23063;DHT22;11699;43.704;10.430;2023-08-24T05:56:07;24.60;99.90
23063;DHT22;11699;43.704;10.430;2023-08-24T05:58:35;24.70;99.90
23063;DHT22;11699;43.704;10.430;2023-08-24T06:01:03;24.90;99.90
23063;DHT22;11699;43.704;10.430;2023-08-24T06:03:30;24.80;99.90
23063;DHT22;11699;43.704;10.430;2023-08-24T06:06:02;24.90;99.90
23063;DHT22;11699;43.704;10.430;2023-08-24T06:08:30;24.90;99.90
23063;DHT22;11699;43.704;10.430;2023-08-24T06:10:57;24.90;99.90
23063;DHT22;11699;43.704;10.430;2023-08-24T06:13:25;24.90;99.90
23063;DHT22;11699;43.704;10.430;2023-08-24T06:15:52;25.00;99.90
23063;DHT22;11699;43.704;10.430;2023-08-24T06:18:21;25.20;99.90
23063;DHT22;11699;43.704;10.430;2023-08-24T06:20:49;25.40;99.90
23063;DHT22;11699;43.704;10.430;2023-08-24T06:23:16;25.60;99.90
23063;DHT22;11699;43.704;10.430;2023-08-24T06:28:30;25.80;99.90
23063;DHT22;11699;43.704;10.430;2023-08-24T06:31:00;25.90;99.90
23063;DHT22;11699;43.704;10.430;2023-08-24T06:33:29;26.10;99.90
23063;DHT22;11699;43.704;10.430;2023-08-24T06:35:56;26.50;99.90
23063;DHT22;11699;43.704;10.430;2023-08-24T06:38:23;27.00;99.90
23063;DHT22;11699;43.704;10.430;2023-08-24T06:40:50;27.20;99.90
23063;DHT22;11699;43.704;10.430;2023-08-24T06:43:17;27.40;99.90
23063;DHT22;11699;43.704;10.430;2023-08-24T06:45:44;27.60;99.90
23063;DHT22;11699;43.704;10.430;2023-08-24T06:48:12;27.70;99.90
23063;DHT22;11699;43.704;10.430;2023-08-24T06:50:40;27.80;99.90
23063;DHT22;11699;43.704;10.430;2023-08-24T06:53:08;28.20;99.90
23063;DHT22;11699;43.704;10.430;2023-08-24T06:55:35;29.10;99.90
23063;DHT22;11699;43.704;10.430;2023-08-24T06:58:03;30.20;99.90
23063;DHT22;11699;43.704;10.430;2023-08-24T07:00:31;30.60;99.90
23063;DHT22;11699;43.704;10.430;2023-08-24T07:02:58;31.30;99.90
23063;DHT22;11699;43.704;10.430;2023-08-24T07:05:25;32.20;99.90
23063;DHT22;11699;43.704;10.430;2023-08-24T07:07:54;33.10;99.90
23063;DHT22;11699;43.704;10.430;2023-08-24T07:10:22;33.90;99.50
23063;DHT22;11699;43.704;10.430;2023-08-24T07:12:49;34.30;98.30
23063;DHT22;11699;43.704;10.430;2023-08-24T07:15:16;34.60;97.70
23063;DHT22;11699;43.704;10.430;2023-08-24T07:17:44;35.40;97.80
23063;DHT22;11699;43.704;10.430;2023-08-24T07:20:11;36.10;96.60
23063;DHT22;11699;43.704;10.430;2023-08-24T07:22:39;36.70;96.20
23063;DHT22;11699;43.704;10.430;2023-08-24T07:25:08;36.80;96.10
23063;DHT22;11699;43.704;10.430;2023-08-24T07:27:37;36.50;95.70
23063;DHT22;11699;43.704;10.430;2023-08-24T07:30:05;36.70;96.00
23063;DHT22;11699;43.704;10.430;2023-08-24T07:32:33;37.10;95.50
23063;DHT22;11699;43.704;10.430;2023-08-24T07:35:00;36.70;94.40
23063;DHT22;11699;43.704;10.430;2023-08-24T07:37:27;37.00;94.60
23063;DHT22;11699;43.704;10.430;2023-08-24T07:39:54;37.10;95.00
23063;DHT22;11699;43.704;10.430;2023-08-24T07:42:23;37.60;95.30
23063;DHT22;11699;43.704;10.430;2023-08-24T07:44:51;38.10;94.90
23063;DHT22;11699;43.704;10.430;2023-08-24T07:47:18;38.10;94.70
23063;DHT22;11699;43.704;10.430;2023-08-24T07:49:46;38.20;93.70
23063;DHT22;11699;43.704;10.430;2023-08-24T07:52:13;38.10;93.40
23063;DHT22;11699;43.704;10.430;2023-08-24T07:54:40;37.50;93.30
23063;DHT22;11699;43.704;10.430;2023-08-24T07:57:08;38.00;94.70
23063;DHT22;11699;43.704;10.430;2023-08-24T07:59:36;38.60;94.20
23063;DHT22;11699;43.704;10.430;2023-08-24T08:02:03;38.30;93.30
23063;DHT22;11699;43.704;10.430;2023-08-24T08:04:30;38.40;93.60
23063;DHT22;11699;43.704;10.430;2023-08-24T08:06:57;38.60;93.00
23063;DHT22;11699;43.704;10.430;2023-08-24T08:09:25;38.20;93.30
23063;DHT22;11699;43.704;10.430;2023-08-24T08:11:52;38.80;93.60
23063;DHT22;11699;43.704;10.430;2023-08-24T08:14:19;38.80;92.00
23063;DHT22;11699;43.704;10.430;2023-08-24T08:16:48;39.20;92.80
23063;DHT22;11699;43.704;10.430;2023-08-24T08:19:15;38.90;92.00
23063;DHT22;11699;43.704;10.430;2023-08-24T08:21:44;38.50;91.40
23063;DHT22;11699;43.704;10.430;2023-08-24T08:24:11;39.00;92.40
23063;DHT22;11699;43.704;10.430;2023-08-24T08:26:39;39.20;91.10
23063;DHT22;11699;43.704;10.430;2023-08-24T08:29:06;39.20;90.30
23063;DHT22;11699;43.704;10.430;2023-08-24T08:31:33;39.20;89.80
23063;DHT22;11699;43.704;10.430;2023-08-24T08:34:02;39.40;89.60
23063;DHT22;11699;43.704;10.430;2023-08-24T08:36:30;39.50;90.90
23063;DHT22;11699;43.704;10.430;2023-08-24T08:38:58;39.80;90.00
23063;DHT22;11699;43.704;10.430;2023-08-24T08:41:30;39.90;89.70
23063;DHT22;11699;43.704;10.430;2023-08-24T08:43:57;40.10;90.60
23063;DHT22;11699;43.704;10.430;2023-08-24T08:46:27;40.20;89.60
23063;DHT22;11699;43.704;10.430;2023-08-24T08:48:54;40.70;91.00
23063;DHT22;11699;43.704;10.430;2023-08-24T08:51:23;41.00;90.20
23063;DHT22;11699;43.704;10.430;2023-08-24T08:53:51;41.10;90.10
23063;DHT22;11699;43.704;10.430;2023-08-24T08:56:18;40.80;88.60
23063;DHT22;11699;43.704;10.430;2023-08-24T08:58:45;40.90;88.50
23063;DHT22;11699;43.704;10.430;2023-08-24T09:01:13;40.90;86.10
23063;DHT22;11699;43.704;10.430;2023-08-24T09:03:41;40.50;85.50
23063;DHT22;11699;43.704;10.430;2023-08-24T09:06:09;41.00;89.20
23063;DHT22;11699;43.704;10.430;2023-08-24T09:08:38;41.30;88.50
23063;DHT22;11699;43.704;10.430;2023-08-24T09:11:05;41.80;87.60
23063;DHT22;11699;43.704;10.430;2023-08-24T09:13:34;41.70;85.30
23063;DHT22;11699;43.704;10.430;2023-08-24T09:16:05;41.80;85.90
23063;DHT22;11699;43.704;10.430;2023-08-24T09:18:36;42.00;86.50
23063;DHT22;11699;43.704;10.430;2023-08-24T09:21:11;41.90;82.50
23063;DHT22;11699;43.704;10.430;2023-08-24T09:23:44;42.00;86.20
23063;DHT22;11699;43.704;10.430;2023-08-24T09:26:12;42.10;82.90
23063;DHT22;11699;43.704;10.430;2023-08-24T09:28:42;42.10;83.60
23063;DHT22;11699;43.704;10.430;2023-08-24T09:31:11;42.00;83.50
23063;DHT22;11699;43.704;10.430;2023-08-24T09:33:39;41.80;83.10
23063;DHT22;11699;43.704;10.430;2023-08-24T09:36:06;42.00;84.70
23063;DHT22;11699;43.704;10.430;2023-08-24T09:38:33;42.00;83.80
23063;DHT22;11699;43.704;10.430;2023-08-24T09:41:03;41.80;80.90
23063;DHT22;11699;43.704;10.430;2023-08-24T09:43:31;41.50;82.10
23063;DHT22;11699;43.704;10.430;2023-08-24T09:45:58;40.90;83.60
23063;DHT22;11699;43.704;10.430;2023-08-24T09:48:26;41.40;85.30
23063;DHT22;11699;43.704;10.430;2023-08-24T09:50:53;42.10;84.30
23063;DHT22;11699;43.704;10.430;2023-08-24T09:53:24;42.70;83.00
23063;DHT22;11699;43.704;10.430;2023-08-24T09:55:54;42.80;83.80
23063;DHT22;11699;43.704;10.430;2023-08-24T09:58:23;42.90;78.40
23063;DHT22;11699;43.704;10.430;2023-08-24T10:00:51;42.90;81.60
23063;DHT22;11699;43.704;10.430;2023-08-24T10:03:21;42.30;78.60
23063;DHT22;11699;43.704;10.430;2023-08-24T10:05:51;42.30;80.10
23063;DHT22;11699;43.704;10.430;2023-08-24T10:08:22;42.70;81.00
23063;DHT22;11699;43.704;10.430;2023-08-24T10:10:53;43.20;79.50
23063;DHT22;11699;43.704;10.430;2023-08-24T10:13:32;43.20;76.80
23063;DHT22;11699;43.704;10.430;2023-08-24T10:16:05;43.00;76.10
23063;DHT22;11699;43.704;10.430;2023-08-24T10:18:33;42.80;76.60
23063;DHT22;11699;43.704;10.430;2023-08-24T10:21:00;43.00;77.40
23063;DHT22;11699;43.704;10.430;2023-08-24T10:23:29;43.60;78.80
23063;DHT22;11699;43.704;10.430;2023-08-24T10:25:57;43.60;75.30
23063;DHT22;11699;43.704;10.430;2023-08-24T10:28:28;43.60;78.50
23063;DHT22;11699;43.704;10.430;2023-08-24T10:30:58;43.70;77.50
23063;DHT22;11699;43.704;10.430;2023-08-24T10:33:27;43.80;73.80
23063;DHT22;11699;43.704;10.430;2023-08-24T10:35:54;44.10;75.60
23063;DHT22;11699;43.704;10.430;2023-08-24T10:38:25;44.10;75.20
23063;DHT22;11699;43.704;10.430;2023-08-24T10:40:53;44.10;75.50
23063;DHT22;11699;43.704;10.430;2023-08-24T10:43:22;44.20;76.00
23063;DHT22;11699;43.704;10.430;2023-08-24T10:45:58;44.30;74.40
23063;DHT22;11699;43.704;10.430;2023-08-24T10:48:27;44.70;73.40
23063;DHT22;11699;43.704;10.430;2023-08-24T10:51:16;44.80;72.90
23063;DHT22;11699;43.704;10.430;2023-08-24T10:53:46;44.50;73.10
23063;DHT22;11699;43.704;10.430;2023-08-24T10:56:14;44.30;71.60
23063;DHT22;11699;43.704;10.430;2023-08-24T10:58:42;44.60;72.10
23063;DHT22;11699;43.704;10.430;2023-08-24T11:01:15;44.20;67.80
23063;DHT22;11699;43.704;10.430;2023-08-24T11:03:49;44.00;70.70
23063;DHT22;11699;43.704;10.430;2023-08-24T11:06:18;44.40;69.50
23063;DHT22;11699;43.704;10.430;2023-08-24T11:08:46;44.80;70.30
23063;DHT22;11699;43.704;10.430;2023-08-24T11:11:20;44.70;70.10
23063;DHT22;11699;43.704;10.430;2023-08-24T11:14:15;44.70;69.80
23063;DHT22;11699;43.704;10.430;2023-08-24T11:16:46;44.80;68.00
23063;DHT22;11699;43.704;10.430;2023-08-24T11:19:14;44.50;65.80
23063;DHT22;11699;43.704;10.430;2023-08-24T11:21:43;43.70;65.30
23063;DHT22;11699;43.704;10.430;2023-08-24T11:24:12;44.10;68.40
23063;DHT22;11699;43.704;10.430;2023-08-24T11:26:41;44.70;68.10
23063;DHT22;11699;43.704;10.430;2023-08-24T11:29:08;44.60;67.30
23063;DHT22;11699;43.704;10.430;2023-08-24T11:31:35;44.70;68.50
23063;DHT22;11699;43.704;10.430;2023-08-24T11:34:04;44.50;67.80
23063;DHT22;11699;43.704;10.430;2023-08-24T11:36:41;45.00;69.00
23063;DHT22;11699;43.704;10.430;2023-08-24T11:39:15;44.80;72.60
23063;DHT22;11699;43.704;10.430;2023-08-24T11:41:42;44.80;73.80
23063;DHT22;11699;43.704;10.430;2023-08-24T11:44:10;44.90;75.20
23063;DHT22;11699;43.704;10.430;2023-08-24T11:46:37;44.50;74.80
23063;DHT22;11699;43.704;10.430;2023-08-24T11:49:07;44.00;74.50
23063;DHT22;11699;43.704;10.430;2023-08-24T11:51:36;43.90;75.20
23063;DHT22;11699;43.704;10.430;2023-08-24T11:54:04;44.20;77.30
23063;DHT22;11699;43.704;10.430;2023-08-24T11:56:31;44.50;77.60
23063;DHT22;11699;43.704;10.430;2023-08-24T11:58:58;44.40;76.50
23063;DHT22;11699;43.704;10.430;2023-08-24T12:01:26;43.90;77.10
23063;DHT22;11699;43.704;10.430;2023-08-24T12:03:54;43.60;77.20
23063;DHT22;11699;43.704;10.430;2023-08-24T12:06:27;43.40;78.70
23063;DHT22;11699;43.704;10.430;2023-08-24T12:08:54;43.30;79.60
23063;DHT22;11699;43.704;10.430;2023-08-24T12:11:21;43.50;80.00
23063;DHT22;11699;43.704;10.430;2023-08-24T12:13:52;43.50;80.50
23063;DHT22;11699;43.704;10.430;2023-08-24T12:16:21;43.70;80.70
23063;DHT22;11699;43.704;10.430;2023-08-24T12:18:53;44.10;78.60
23063;DHT22;11699;43.704;10.430;2023-08-24T12:21:22;44.10;76.60
23063;DHT22;11699;43.704;10.430;2023-08-24T12:23:56;44.10;77.20
23063;DHT22;11699;43.704;10.430;2023-08-24T12:26:23;44.20;77.10
23063;DHT22;11699;43.704;10.430;2023-08-24T12:28:51;44.20;77.80
23063;DHT22;11699;43.704;10.430;2023-08-24T12:31:19;44.10;76.90
23063;DHT22;11699;43.704;10.430;2023-08-24T12:33:58;43.70;76.10
23063;DHT22;11699;43.704;10.430;2023-08-24T12:36:27;43.80;79.60
23063;DHT22;11699;43.704;10.430;2023-08-24T12:38:54;44.00;78.60
23063;DHT22;11699;43.704;10.430;2023-08-24T12:41:22;43.60;78.90
23063;DHT22;11699;43.704;10.430;2023-08-24T12:43:50;43.20;81.10
23063;DHT22;11699;43.704;10.430;2023-08-24T12:46:18;43.00;80.90
23063;DHT22;11699;43.704;10.430;2023-08-24T12:48:45;43.00;81.50
23063;DHT22;11699;43.704;10.430;2023-08-24T12:51:12;42.80;81.70
23063;DHT22;11699;43.704;10.430;2023-08-24T12:53:40;42.40;81.60
23063;DHT22;11699;43.704;10.430;2023-08-24T12:56:08;42.10;80.70
23063;DHT22;11699;43.704;10.430;2023-08-24T12:58:35;42.00;82.70
23063;DHT22;11699;43.704;10.430;2023-08-24T13:01:02;41.60;82.30
23063;DHT22;11699;43.704;10.430;2023-08-24T13:03:29;41.40;83.20
23063;DHT22;11699;43.704;10.430;2023-08-24T13:05:56;41.30;83.30
23063;DHT22;11699;43.704;10.430;2023-08-24T13:08:24;41.30;82.30
23063;DHT22;11699;43.704;10.430;2023-08-24T13:10:53;41.40;82.40
23063;DHT22;11699;43.704;10.430;2023-08-24T13:13:20;41.20;84.40
23063;DHT22;11699;43.704;10.430;2023-08-24T13:15:49;41.40;84.40
23063;DHT22;11699;43.704;10.430;2023-08-24T13:18:17;41.70;83.80
23063;DHT22;11699;43.704;10.430;2023-08-24T13:20:44;41.90;81.10
23063;DHT22;11699;43.704;10.430;2023-08-24T13:23:11;41.70;81.00
23063;DHT22;11699;43.704;10.430;2023-08-24T13:25:39;41.40;77.90
23063;DHT22;11699;43.704;10.430;2023-08-24T13:28:08;41.20;77.50
23063;DHT22;11699;43.704;10.430;2023-08-24T13:30:35;41.00;78.60
23063;DHT22;11699;43.704;10.430;2023-08-24T13:33:02;41.10;79.60
23063;DHT22;11699;43.704;10.430;2023-08-24T13:35:30;41.10;79.10
23063;DHT22;11699;43.704;10.430;2023-08-24T13:37:57;40.70;80.70
23063;DHT22;11699;43.704;10.430;2023-08-24T13:40:24;40.70;79.00
23063;DHT22;11699;43.704;10.430;2023-08-24T13:42:52;40.70;79.20
23063;DHT22;11699;43.704;10.430;2023-08-24T13:45:20;40.60;80.10
23063;DHT22;11699;43.704;10.430;2023-08-24T13:47:48;40.70;80.00
23063;DHT22;11699;43.704;10.430;2023-08-24T13:50:15;40.70;80.00
23063;DHT22;11699;43.704;10.430;2023-08-24T13:52:42;40.60;80.70
23063;DHT22;11699;43.704;10.430;2023-08-24T13:55:09;40.60;81.00
23063;DHT22;11699;43.704;10.430;2023-08-24T13:57:36;40.60;81.00
23063;DHT22;11699;43.704;10.430;2023-08-24T14:00:05;40.60;79.80
23063;DHT22;11699;43.704;10.430;2023-08-24T14:02:35;40.50;80.50
23063;DHT22;11699;43.704;10.430;2023-08-24T14:05:03;40.40;80.60
23063;DHT22;11699;43.704;10.430;2023-08-24T14:07:31;40.20;81.70
23063;DHT22;11699;43.704;10.430;2023-08-24T14:09:59;40.00;82.40
23063;DHT22;11699;43.704;10.430;2023-08-24T14:12:26;40.00;81.00
23063;DHT22;11699;43.704;10.430;2023-08-24T14:14:53;39.90;81.50
23063;DHT22;11699;43.704;10.430;2023-08-24T14:17:20;39.90;79.70
23063;DHT22;11699;43.704;10.430;2023-08-24T14:19:48;39.90;80.40
23063;DHT22;11699;43.704;10.430;2023-08-24T14:22:16;39.90;79.60
23063;DHT22;11699;43.704;10.430;2023-08-24T14:24:43;39.50;79.40
23063;DHT22;11699;43.704;10.430;2023-08-24T14:27:10;39.10;79.80
23063;DHT22;11699;43.704;10.430;2023-08-24T14:29:37;38.90;79.40
23063;DHT22;11699;43.704;10.430;2023-08-24T14:32:04;38.90;79.80
23063;DHT22;11699;43.704;10.430;2023-08-24T14:34:31;38.80;79.80
23063;DHT22;11699;43.704;10.430;2023-08-24T14:37:00;38.70;78.90
23063;DHT22;11699;43.704;10.430;2023-08-24T14:39:27;38.30;81.10
23063;DHT22;11699;43.704;10.430;2023-08-24T14:41:54;38.20;80.80
23063;DHT22;11699;43.704;10.430;2023-08-24T14:44:21;38.20;81.20
23063;DHT22;11699;43.704;10.430;2023-08-24T14:46:48;38.20;81.00
23063;DHT22;11699;43.704;10.430;2023-08-24T14:49:16;38.20;79.70
23063;DHT22;11699;43.704;10.430;2023-08-24T14:51:44;38.10;83.60
23063;DHT22;11699;43.704;10.430;2023-08-24T14:54:13;38.10;82.30
23063;DHT22;11699;43.704;10.430;2023-08-24T14:56:40;38.10;84.40
23063;DHT22;11699;43.704;10.430;2023-08-24T14:59:08;38.10;82.80
23063;DHT22;11699;43.704;10.430;2023-08-24T15:01:35;38.00;83.50
23063;DHT22;11699;43.704;10.430;2023-08-24T15:04:02;37.90;83.00
23063;DHT22;11699;43.704;10.430;2023-08-24T15:06:29;37.90;84.30
23063;DHT22;11699;43.704;10.430;2023-08-24T15:08:56;37.90;84.80
23063;DHT22;11699;43.704;10.430;2023-08-24T15:11:26;37.70;83.90
23063;DHT22;11699;43.704;10.430;2023-08-24T15:13:53;37.50;85.90
23063;DHT22;11699;43.704;10.430;2023-08-24T15:16:20;37.40;85.30
23063;DHT22;11699;43.704;10.430;2023-08-24T15:18:48;37.40;85.50
23063;DHT22;11699;43.704;10.430;2023-08-24T15:21:15;37.40;84.90
23063;DHT22;11699;43.704;10.430;2023-08-24T15:23:42;37.30;83.90